Green Fast — ZDHA9 — position and weather

sailwx.info

Track history (hours):
 
Tides and Currents Weather Stations Pressure Air Temp Water Temp Dewpoint Dewpoint Depression Visibility Wind Speed Wind Dir Waves Ship Positions

Green Fast

Last reported at 2016-May-24 09:34 UTC. Time now 2016-May-24 09:54 UTC.
Position N 46°20' E 030°40'.

Length 118 m; draft 5.3 m.

Type: Ship (hazmat cat A). MMSI: 236294000.

Date/timePositionNaut miles runAvg speedWind from/ knotsBaromVisibWave heightAir tempDewpointWater temp
2016-May-24 09:34N 46°20' E 030°40'0 0.0
2016-May-24 08:34N 46°20' E 030°40'0 0.0
2016-May-24 07:33N 46°20' E 030°40'0 0.0
2016-May-24 06:33N 46°20' E 030°40'0 0.0
2016-May-24 05:34N 46°20' E 030°40'0 0.0
2016-May-24 04:34N 46°20' E 030°40'1 0.8
2016-May-24 03:34N 46°19' E 030°40'7 6.7
2016-May-24 02:34N 46°14' E 030°46'1010.3
2016-May-24 01:34N 46°03' E 030°47'10 9.7
2016-May-24 00:34N 45°54' E 030°41'10 9.9
2016-May-23 23:33N 45°46' E 030°34'10 9.6
2016-May-23 22:32N 45°38' E 030°26'  
2016-May-21 17:26N 43°18' E 031°26'  
2016-May-16 19:07N 45°50' E 030°38'1111.0
2016-May-16 18:09N 45°59' E 030°46'610.6
2016-May-16 17:33N 46°05' E 030°46'1111.0
2016-May-16 16:34N 46°16' E 030°46'5 5.3
2016-May-16 15:34N 46°20' E 030°40'0 0.0
2016-May-16 14:31N 46°20' E 030°40'0 0.0
2016-May-16 13:31N 46°20' E 030°40'0 0.0
2016-May-16 12:31N 46°20' E 030°40'0 0.0
2016-May-16 11:22N 46°20' E 030°40'0 0.0
2016-May-16 10:28N 46°20' E 030°40'0 0.0
2016-May-16 09:31N 46°20' E 030°40'0 0.0
2016-May-16 08:25N 46°20' E 030°40'0 0.0
2016-May-16 07:31N 46°20' E 030°40'0 0.0
2016-May-16 06:31N 46°20' E 030°40'0 0.0
2016-May-16 05:31N 46°20' E 030°40'11 0.8
2016-May-15 16:11N 46°09' E 030°46'710.4
2016-May-15 15:34N 46°03' E 030°46'  
Track history (hours):
 
Tides and Currents Weather Stations Pressure Air Temp Water Temp Dewpoint Dewpoint Depression Visibility Wind Speed Wind Dir Waves Ship Positions

Green Fast

Last reported at 2016-May-24 09:34 UTC. Time now 2016-May-24 09:54 UTC.
Position N 46°20' E 030°40'.

Length 118 m; draft 5.3 m.

Type: Ship (hazmat cat A). MMSI: 236294000.

Date/timePositionNaut miles runAvg speedWind from/ knotsBaromVisibWave heightAir tempDewpointWater temp
2016-May-24 09:34N 46°20' E 030°40'0 0.0
2016-May-24 08:34N 46°20' E 030°40'0 0.0
2016-May-24 07:33N 46°20' E 030°40'0 0.0
2016-May-24 06:33N 46°20' E 030°40'0 0.0
2016-May-24 05:34N 46°20' E 030°40'0 0.0
2016-May-24 04:34N 46°20' E 030°40'1 0.8
2016-May-24 03:34N 46°19' E 030°40'7 6.7
2016-May-24 02:34N 46°14' E 030°46'1010.3
2016-May-24 01:34N 46°03' E 030°47'10 9.7
2016-May-24 00:34N 45°54' E 030°41'10 9.9
2016-May-23 23:33N 45°46' E 030°34'10 9.6
2016-May-23 22:32N 45°38' E 030°26'  
2016-May-21 17:26N 43°18' E 031°26'  
2016-May-16 19:07N 45°50' E 030°38'1111.0
2016-May-16 18:09N 45°59' E 030°46'610.6
2016-May-16 17:33N 46°05' E 030°46'1111.0
2016-May-16 16:34N 46°16' E 030°46'5 5.3
2016-May-16 15:34N 46°20' E 030°40'0 0.0
2016-May-16 14:31N 46°20' E 030°40'0 0.0
2016-May-16 13:31N 46°20' E 030°40'0 0.0
2016-May-16 12:31N 46°20' E 030°40'0 0.0
2016-May-16 11:22N 46°20' E 030°40'0 0.0
2016-May-16 10:28N 46°20' E 030°40'0 0.0
2016-May-16 09:31N 46°20' E 030°40'0 0.0
2016-May-16 08:25N 46°20' E 030°40'0 0.0
2016-May-16 07:31N 46°20' E 030°40'0 0.0
2016-May-16 06:31N 46°20' E 030°40'0 0.0
2016-May-16 05:31N 46°20' E 030°40'11 0.8
2016-May-15 16:11N 46°09' E 030°46'710.4
2016-May-15 15:34N 46°03' E 030°46'  

Dump ship's entire track history